sensor_id;sensor_type;location;lat;lon;timestamp;pressure;altitude;pressure_sealevel;temperature;humidity
10712;BME280;5407;51.234;6.804;2023-02-28T00:01:05;102472.34;;;23.52;35.06
10712;BME280;5407;51.234;6.804;2023-02-28T00:03:31;102479.84;;;23.52;34.88
10712;BME280;5407;51.234;6.804;2023-02-28T00:06:01;102472.34;;;23.52;34.88
10712;BME280;5407;51.234;6.804;2023-02-28T00:08:27;102470.78;;;23.51;34.88
10712;BME280;5407;51.234;6.804;2023-02-28T00:10:56;102466.44;;;23.50;34.91
10712;BME280;5407;51.234;6.804;2023-02-28T00:13:23;102470.00;;;23.51;34.91
10712;BME280;5407;51.234;6.804;2023-02-28T00:15:59;102479.03;;;23.51;34.78
10712;BME280;5407;51.234;6.804;2023-02-28T00:18:26;102473.94;;;23.50;34.89
10712;BME280;5407;51.234;6.804;2023-02-28T00:20:53;102468.44;;;23.50;34.89
10712;BME280;5407;51.234;6.804;2023-02-28T00:23:19;102469.19;;;23.50;34.87
10712;BME280;5407;51.234;6.804;2023-02-28T00:25:46;102471.19;;;23.50;34.82
10712;BME280;5407;51.234;6.804;2023-02-28T00:28:15;102470.00;;;23.51;34.83
10712;BME280;5407;51.234;6.804;2023-02-28T00:30:41;102471.19;;;23.50;35.00
10712;BME280;5407;51.234;6.804;2023-02-28T00:33:08;102473.13;;;23.49;34.90
10712;BME280;5407;51.234;6.804;2023-02-28T00:35:35;102471.19;;;23.50;34.84
10712;BME280;5407;51.234;6.804;2023-02-28T00:38:03;102473.13;;;23.49;34.77
10712;BME280;5407;51.234;6.804;2023-02-28T00:40:30;102475.13;;;23.49;34.84
10712;BME280;5407;51.234;6.804;2023-02-28T00:42:57;102466.03;;;23.48;34.81
10712;BME280;5407;51.234;6.804;2023-02-28T00:45:25;102470.78;;;23.48;34.78
10712;BME280;5407;51.234;6.804;2023-02-28T00:47:52;102475.13;;;23.49;34.84
10712;BME280;5407;51.234;6.804;2023-02-28T00:50:19;102477.06;;;23.48;34.89
10712;BME280;5407;51.234;6.804;2023-02-28T00:52:46;102464.47;;;23.47;34.82
10712;BME280;5407;51.234;6.804;2023-02-28T00:55:14;102466.03;;;23.48;34.80
10712;BME280;5407;51.234;6.804;2023-02-28T00:57:41;102466.03;;;23.48;34.88
10712;BME280;5407;51.234;6.804;2023-02-28T01:00:09;102468.03;;;23.48;34.76
10712;BME280;5407;51.234;6.804;2023-02-28T01:02:38;102470.78;;;23.48;34.84
10712;BME280;5407;51.234;6.804;2023-02-28T01:05:05;102473.53;;;23.48;34.74
10712;BME280;5407;51.234;6.804;2023-02-28T01:07:32;102471.97;;;23.47;34.83
10712;BME280;5407;51.234;6.804;2023-02-28T01:09:59;102469.19;;;23.47;34.75
10712;BME280;5407;51.234;6.804;2023-02-28T01:12:26;102469.19;;;23.47;34.83
10712;BME280;5407;51.234;6.804;2023-02-28T01:14:53;102471.97;;;23.47;34.84
10712;BME280;5407;51.234;6.804;2023-02-28T01:17:20;102468.41;;;23.46;34.71
10712;BME280;5407;51.234;6.804;2023-02-28T01:19:49;102473.91;;;23.46;34.77
10712;BME280;5407;51.234;6.804;2023-02-28T01:22:16;102475.88;;;23.46;34.72
10712;BME280;5407;51.234;6.804;2023-02-28T01:24:42;102470.38;;;23.46;34.71
10712;BME280;5407;51.234;6.804;2023-02-28T01:27:11;102471.16;;;23.46;34.82
10712;BME280;5407;51.234;6.804;2023-02-28T01:29:38;102473.91;;;23.46;34.74
10712;BME280;5407;51.234;6.804;2023-02-28T01:32:05;102475.88;;;23.46;34.71
10712;BME280;5407;51.234;6.804;2023-02-28T01:34:34;102475.88;;;23.46;34.62
10712;BME280;5407;51.234;6.804;2023-02-28T01:37:04;102464.06;;;23.45;34.59
10712;BME280;5407;51.234;6.804;2023-02-28T01:39:31;102477.06;;;23.45;34.71
10712;BME280;5407;51.234;6.804;2023-02-28T01:41:58;102473.13;;;23.46;34.54
10712;BME280;5407;51.234;6.804;2023-02-28T01:45:00;102472.72;;;23.47;34.65
10712;BME280;5407;51.234;6.804;2023-02-28T01:47:30;102470.38;;;23.46;34.42
10712;BME280;5407;51.234;6.804;2023-02-28T01:49:58;102461.31;;;23.45;34.49
10712;BME280;5407;51.234;6.804;2023-02-28T01:52:31;102467.63;;;23.46;34.64
10712;BME280;5407;51.234;6.804;2023-02-28T01:55:00;102467.63;;;23.46;34.53
10712;BME280;5407;51.234;6.804;2023-02-28T01:57:32;102462.09;;;23.46;34.58
10712;BME280;5407;51.234;6.804;2023-02-28T02:00:07;102461.31;;;23.45;34.58
10712;BME280;5407;51.234;6.804;2023-02-28T02:02:47;102463.28;;;23.45;34.45
10712;BME280;5407;51.234;6.804;2023-02-28T02:05:18;102467.63;;;23.46;34.47
10712;BME280;5407;51.234;6.804;2023-02-28T02:07:51;102463.28;;;23.45;34.46
10712;BME280;5407;51.234;6.804;2023-02-28T02:10:21;102443.19;;;23.44;34.53
10712;BME280;5407;51.234;6.804;2023-02-28T02:16:23;102455.03;;;23.45;34.52
10712;BME280;5407;51.234;6.804;2023-02-28T02:18:58;102460.53;;;23.45;34.47
10712;BME280;5407;51.234;6.804;2023-02-28T02:21:47;102455.03;;;23.45;34.49
10712;BME280;5407;51.234;6.804;2023-02-28T02:24:59;102449.50;;;23.45;34.54
10712;BME280;5407;51.234;6.804;2023-02-28T02:27:44;102445.19;;;23.44;34.45
10712;BME280;5407;51.234;6.804;2023-02-28T02:30:40;102447.94;;;23.44;34.51
10712;BME280;5407;51.234;6.804;2023-02-28T02:33:28;102447.94;;;23.44;34.56
10712;BME280;5407;51.234;6.804;2023-02-28T02:36:07;102446.31;;;23.43;34.47
10712;BME280;5407;51.234;6.804;2023-02-28T02:38:42;102440.81;;;23.43;34.46
10712;BME280;5407;51.234;6.804;2023-02-28T02:41:18;102443.16;;;23.41;34.51
10712;BME280;5407;51.234;6.804;2023-02-28T02:43:48;102440.81;;;23.43;34.45
10712;BME280;5407;51.234;6.804;2023-02-28T02:46:19;102432.16;;;23.41;34.43
10712;BME280;5407;51.234;6.804;2023-02-28T02:48:48;102427.44;;;23.41;34.39
10712;BME280;5407;51.234;6.804;2023-02-28T02:51:19;102429.38;;;23.41;34.50
10712;BME280;5407;51.234;6.804;2023-02-28T02:53:50;102426.63;;;23.41;34.34
10712;BME280;5407;51.234;6.804;2023-02-28T02:56:19;102434.13;;;23.40;34.34
10712;BME280;5407;51.234;6.804;2023-02-28T02:58:49;102430.56;;;23.40;34.36
10712;BME280;5407;51.234;6.804;2023-02-28T03:01:20;102427.81;;;23.40;34.36
10712;BME280;5407;51.234;6.804;2023-02-28T03:03:55;102434.50;;;23.39;34.42
10712;BME280;5407;51.234;6.804;2023-02-28T03:06:25;102440.00;;;23.39;34.34
10712;BME280;5407;51.234;6.804;2023-02-28T03:08:53;102432.91;;;23.38;34.38
10712;BME280;5407;51.234;6.804;2023-02-28T03:11:22;102439.25;;;23.38;34.40
10712;BME280;5407;51.234;6.804;2023-02-28T03:16:57;102438.44;;;23.38;34.53
10712;BME280;5407;51.234;6.804;2023-02-28T03:19:48;102432.16;;;23.37;34.47
10712;BME280;5407;51.234;6.804;2023-02-28T03:25:27;102430.94;;;23.35;34.49
10712;BME280;5407;51.234;6.804;2023-02-28T03:28:00;102425.44;;;23.35;34.40
10712;BME280;5407;51.234;6.804;2023-02-28T03:30:36;102418.34;;;23.34;34.36
10712;BME280;5407;51.234;6.804;2023-02-28T03:33:08;102429.38;;;23.34;34.32
10712;BME280;5407;51.234;6.804;2023-02-28T03:35:40;102421.09;;;23.34;34.30
10712;BME280;5407;51.234;6.804;2023-02-28T03:38:13;102420.31;;;23.33;34.24
10712;BME280;5407;51.234;6.804;2023-02-28T03:40:45;102418.75;;;23.32;34.40
10712;BME280;5407;51.234;6.804;2023-02-28T03:43:20;102418.75;;;23.32;34.33
10712;BME280;5407;51.234;6.804;2023-02-28T03:45:50;102423.44;;;23.32;34.26
10712;BME280;5407;51.234;6.804;2023-02-28T03:48:21;102423.44;;;23.32;34.38
10712;BME280;5407;51.234;6.804;2023-02-28T03:50:51;102427.38;;;23.31;34.24
10712;BME280;5407;51.234;6.804;2023-02-28T03:53:25;102430.13;;;23.31;34.23
10712;BME280;5407;51.234;6.804;2023-02-28T03:55:57;102427.38;;;23.31;34.24
10712;BME280;5407;51.234;6.804;2023-02-28T03:58:30;102432.88;;;23.31;34.26
10712;BME280;5407;51.234;6.804;2023-02-28T04:01:03;102431.31;;;23.30;34.35
10712;BME280;5407;51.234;6.804;2023-02-28T04:06:01;102441.16;;;23.31;34.27
10712;BME280;5407;51.234;6.804;2023-02-28T04:08:30;102443.91;;;23.31;34.23
10712;BME280;5407;51.234;6.804;2023-02-28T04:18:20;102440.75;;;23.29;34.43
10712;BME280;5407;51.234;6.804;2023-02-28T04:20:47;102442.31;;;23.30;34.37
10712;BME280;5407;51.234;6.804;2023-02-28T04:23:14;102449.41;;;23.31;34.25
10712;BME280;5407;51.234;6.804;2023-02-28T04:25:42;102446.25;;;23.29;34.47
10712;BME280;5407;51.234;6.804;2023-02-28T04:28:09;102445.47;;;23.28;34.45
10712;BME280;5407;51.234;6.804;2023-02-28T04:30:37;102447.44;;;23.28;34.59
10712;BME280;5407;51.234;6.804;2023-02-28T04:33:04;102444.69;;;23.28;34.49
10712;BME280;5407;51.234;6.804;2023-02-28T04:35:31;102448.59;;;23.27;34.49
10712;BME280;5407;51.234;6.804;2023-02-28T04:37:59;102443.91;;;23.27;34.64
10712;BME280;5407;51.234;6.804;2023-02-28T04:40:25;102445.84;;;23.27;34.53
10712;BME280;5407;51.234;6.804;2023-02-28T04:42:54;102447.84;;;23.26;34.63
10712;BME280;5407;51.234;6.804;2023-02-28T04:45:20;102452.53;;;23.26;34.71
10712;BME280;5407;51.234;6.804;2023-02-28T04:47:47;102445.44;;;23.25;34.60
10712;BME280;5407;51.234;6.804;2023-02-28T04:50:14;102456.47;;;23.25;34.69
10712;BME280;5407;51.234;6.804;2023-02-28T04:52:41;102450.97;;;23.25;34.70
10712;BME280;5407;51.234;6.804;2023-02-28T04:55:08;102458.44;;;23.24;34.72
10712;BME280;5407;51.234;6.804;2023-02-28T04:57:35;102456.06;;;23.23;34.82
10712;BME280;5407;51.234;6.804;2023-02-28T05:00:05;102453.31;;;23.23;34.85
10712;BME280;5407;51.234;6.804;2023-02-28T05:02:37;102459.63;;;23.23;34.84
10712;BME280;5407;51.234;6.804;2023-02-28T05:05:04;102450.56;;;23.23;34.66
10712;BME280;5407;51.234;6.804;2023-02-28T05:07:30;102454.47;;;23.22;34.75
10712;BME280;5407;51.234;6.804;2023-02-28T05:09:57;102447.81;;;23.23;34.71
10712;BME280;5407;51.234;6.804;2023-02-28T05:12:24;102453.31;;;23.23;34.62
10712;BME280;5407;51.234;6.804;2023-02-28T05:14:51;102460.41;;;23.24;34.60
10712;BME280;5407;51.234;6.804;2023-02-28T05:17:19;102459.63;;;23.23;34.68
10712;BME280;5407;51.234;6.804;2023-02-28T05:19:46;102453.31;;;23.23;34.67
10712;BME280;5407;51.234;6.804;2023-02-28T05:22:14;102460.41;;;23.24;34.55
10712;BME280;5407;51.234;6.804;2023-02-28T05:24:41;102456.47;;;23.25;34.57
10712;BME280;5407;51.234;6.804;2023-02-28T05:27:09;102461.19;;;23.24;34.42
10712;BME280;5407;51.234;6.804;2023-02-28T05:29:36;102459.22;;;23.25;34.48
10712;BME280;5407;51.234;6.804;2023-02-28T05:32:08;102461.97;;;23.25;34.52
10712;BME280;5407;51.234;6.804;2023-02-28T05:34:37;102459.22;;;23.25;34.41
10712;BME280;5407;51.234;6.804;2023-02-28T05:37:04;102458.03;;;23.26;34.41
10712;BME280;5407;51.234;6.804;2023-02-28T05:39:32;102461.59;;;23.26;34.28
10712;BME280;5407;51.234;6.804;2023-02-28T05:41:59;102474.56;;;23.26;34.19
10712;BME280;5407;51.234;6.804;2023-02-28T05:44:26;102467.88;;;23.27;34.30
10712;BME280;5407;51.234;6.804;2023-02-28T05:46:53;102467.13;;;23.26;34.25
10712;BME280;5407;51.234;6.804;2023-02-28T05:49:19;102481.66;;;23.27;34.31
10712;BME280;5407;51.234;6.804;2023-02-28T05:51:48;102478.50;;;23.25;34.31
10712;BME280;5407;51.234;6.804;2023-02-28T05:54:14;102474.56;;;23.26;34.31
10712;BME280;5407;51.234;6.804;2023-02-28T05:56:41;102469.06;;;23.26;34.54
10712;BME280;5407;51.234;6.804;2023-02-28T05:59:09;102480.06;;;23.26;34.41
10712;BME280;5407;51.234;6.804;2023-02-28T06:01:37;102484.81;;;23.25;34.19
10712;BME280;5407;51.234;6.804;2023-02-28T06:04:05;102490.31;;;23.25;34.43
10712;BME280;5407;51.234;6.804;2023-02-28T06:06:33;102486.75;;;23.21;34.77
10712;BME280;5407;51.234;6.804;2023-02-28T06:09:03;102491.81;;;23.19;34.81
10712;BME280;5407;51.234;6.804;2023-02-28T06:11:30;102492.22;;;23.18;34.83
10712;BME280;5407;51.234;6.804;2023-02-28T06:13:59;102494.22;;;23.21;34.65
10712;BME280;5407;51.234;6.804;2023-02-28T06:16:27;102498.19;;;23.23;34.70
10712;BME280;5407;51.234;6.804;2023-02-28T06:18:57;102497.00;;;23.24;34.63
10712;BME280;5407;51.234;6.804;2023-02-28T06:21:24;102495.03;;;23.25;34.86
10712;BME280;5407;51.234;6.804;2023-02-28T06:23:52;102504.47;;;23.24;34.81
10712;BME280;5407;51.234;6.804;2023-02-28T06:26:21;102502.88;;;23.23;34.85
10712;BME280;5407;51.234;6.804;2023-02-28T06:28:48;102512.31;;;23.22;34.87
10712;BME280;5407;51.234;6.804;2023-02-28T06:31:17;102507.22;;;23.20;34.90
10712;BME280;5407;51.234;6.804;2023-02-28T06:33:45;102506.41;;;23.20;34.90
10712;BME280;5407;51.234;6.804;2023-02-28T06:36:14;102507.56;;;23.19;34.98
10712;BME280;5407;51.234;6.804;2023-02-28T06:38:41;102515.84;;;23.19;34.83
10712;BME280;5407;51.234;6.804;2023-02-28T06:41:09;102522.13;;;23.19;34.89
10712;BME280;5407;51.234;6.804;2023-02-28T06:43:41;102522.50;;;23.18;34.78
10712;BME280;5407;51.234;6.804;2023-02-28T06:46:11;102517.00;;;23.18;34.75
10712;BME280;5407;51.234;6.804;2023-02-28T06:48:39;102517.00;;;23.18;34.68
10712;BME280;5407;51.234;6.804;2023-02-28T06:51:07;102522.50;;;23.18;34.68
10712;BME280;5407;51.234;6.804;2023-02-28T06:53:35;102533.53;;;23.18;34.65
10712;BME280;5407;51.234;6.804;2023-02-28T06:56:04;102531.56;;;23.18;34.46
10712;BME280;5407;51.234;6.804;2023-02-28T06:58:32;102531.19;;;23.20;34.34
10712;BME280;5407;51.234;6.804;2023-02-28T07:01:00;102533.94;;;23.20;34.37
10712;BME280;5407;51.234;6.804;2023-02-28T07:03:27;102528.44;;;23.20;34.37
10712;BME280;5407;51.234;6.804;2023-02-28T07:05:54;102537.50;;;23.20;34.46
10712;BME280;5407;51.234;6.804;2023-02-28T07:08:22;102533.94;;;23.20;34.46
10712;BME280;5407;51.234;6.804;2023-02-28T07:10:51;102536.69;;;23.20;34.33
10712;BME280;5407;51.234;6.804;2023-02-28T07:13:18;102536.69;;;23.20;34.42
10712;BME280;5407;51.234;6.804;2023-02-28T07:15:53;102544.16;;;23.19;34.45
10712;BME280;5407;51.234;6.804;2023-02-28T07:18:21;102533.94;;;23.20;34.52
10712;BME280;5407;51.234;6.804;2023-02-28T07:20:49;102535.09;;;23.19;34.56
10712;BME280;5407;51.234;6.804;2023-02-28T07:23:16;102544.53;;;23.18;34.56
10712;BME280;5407;51.234;6.804;2023-02-28T07:25:43;102532.72;;;23.17;34.66
10712;BME280;5407;51.234;6.804;2023-02-28T07:28:11;102539.81;;;23.18;34.58
10712;BME280;5407;51.234;6.804;2023-02-28T07:30:38;102541.41;;;23.19;34.25
10712;BME280;5407;51.234;6.804;2023-02-28T07:33:05;102547.31;;;23.18;34.12
10712;BME280;5407;51.234;6.804;2023-02-28T07:35:33;102546.13;;;23.19;34.03
10712;BME280;5407;51.234;6.804;2023-02-28T07:38:00;102546.91;;;23.19;34.17
10712;BME280;5407;51.234;6.804;2023-02-28T07:40:28;102545.31;;;23.18;34.12
10712;BME280;5407;51.234;6.804;2023-02-28T07:42:55;102544.53;;;23.18;34.23
10712;BME280;5407;51.234;6.804;2023-02-28T07:45:22;102549.25;;;23.17;34.24
10712;BME280;5407;51.234;6.804;2023-02-28T07:47:49;102543.75;;;23.17;34.16
10712;BME280;5407;51.234;6.804;2023-02-28T07:50:15;102550.06;;;23.18;34.20
10712;BME280;5407;51.234;6.804;2023-02-28T07:52:44;102542.97;;;23.17;34.34
10712;BME280;5407;51.234;6.804;2023-02-28T07:55:10;102553.19;;;23.16;34.40
10712;BME280;5407;51.234;6.804;2023-02-28T07:57:39;102557.91;;;23.16;34.38
10712;BME280;5407;51.234;6.804;2023-02-28T08:00:08;102557.09;;;23.15;34.33
10712;BME280;5407;51.234;6.804;2023-02-28T08:02:39;102562.59;;;23.15;34.53
10712;BME280;5407;51.234;6.804;2023-02-28T08:05:07;102561.84;;;23.15;34.47
10712;BME280;5407;51.234;6.804;2023-02-28T08:07:34;102565.38;;;23.15;34.44
10712;BME280;5407;51.234;6.804;2023-02-28T08:10:03;102559.09;;;23.15;34.36
10712;BME280;5407;51.234;6.804;2023-02-28T08:12:31;102553.94;;;23.13;34.39
10712;BME280;5407;51.234;6.804;2023-02-28T08:14:58;102565.75;;;23.14;34.46
10712;BME280;5407;51.234;6.804;2023-02-28T08:17:24;102556.31;;;23.15;34.41
10712;BME280;5407;51.234;6.804;2023-02-28T08:19:51;102557.09;;;23.15;34.36
10712;BME280;5407;51.234;6.804;2023-02-28T08:22:18;102558.69;;;23.16;34.34
10712;BME280;5407;51.234;6.804;2023-02-28T08:24:45;102563.41;;;23.16;34.34
10712;BME280;5407;51.234;6.804;2023-02-28T08:27:13;102570.50;;;23.17;34.60
10712;BME280;5407;51.234;6.804;2023-02-28T08:29:40;102568.13;;;23.15;34.69
10712;BME280;5407;51.234;6.804;2023-02-28T08:32:07;102561.03;;;23.14;34.80
10712;BME280;5407;51.234;6.804;2023-02-28T08:34:34;102569.69;;;23.13;34.80
10712;BME280;5407;51.234;6.804;2023-02-28T08:37:01;102561.41;;;23.13;34.98
10712;BME280;5407;51.234;6.804;2023-02-28T08:39:28;102565.34;;;23.12;34.95
10712;BME280;5407;51.234;6.804;2023-02-28T08:41:54;102564.09;;;23.09;34.97
10712;BME280;5407;51.234;6.804;2023-02-28T08:44:23;102563.34;;;23.09;35.22
10712;BME280;5407;51.234;6.804;2023-02-28T08:46:50;102566.53;;;23.11;35.39
10712;BME280;5407;51.234;6.804;2023-02-28T08:49:17;102569.69;;;23.13;35.41
10712;BME280;5407;51.234;6.804;2023-02-28T08:51:44;102561.84;;;23.15;35.41
10712;BME280;5407;51.234;6.804;2023-02-28T08:54:10;102569.69;;;23.16;35.34
10712;BME280;5407;51.234;6.804;2023-02-28T08:56:38;102567.34;;;23.18;35.39
10712;BME280;5407;51.234;6.804;2023-02-28T08:59:05;102561.06;;;23.18;35.44
10712;BME280;5407;51.234;6.804;2023-02-28T09:01:33;102564.22;;;23.20;35.34
10712;BME280;5407;51.234;6.804;2023-02-28T09:04:02;102559.91;;;23.19;35.59
10712;BME280;5407;51.234;6.804;2023-02-28T09:06:29;102563.06;;;23.21;35.45
10712;BME280;5407;51.234;6.804;2023-02-28T09:08:56;102549.28;;;23.21;35.38
10712;BME280;5407;51.234;6.804;2023-02-28T09:11:24;102557.56;;;23.21;35.39
10712;BME280;5407;51.234;6.804;2023-02-28T09:13:51;102560.31;;;23.21;35.35
10712;BME280;5407;51.234;6.804;2023-02-28T09:16:19;102559.91;;;23.19;35.37
10712;BME280;5407;51.234;6.804;2023-02-28T09:18:47;102546.91;;;23.19;35.28
10712;BME280;5407;51.234;6.804;2023-02-28T09:21:16;102555.56;;;23.18;35.38
10712;BME280;5407;51.234;6.804;2023-02-28T09:23:44;102539.81;;;23.18;35.39
10712;BME280;5407;51.234;6.804;2023-02-28T09:26:14;102542.19;;;23.20;35.36
10712;BME280;5407;51.234;6.804;2023-02-28T09:28:41;102548.53;;;23.24;35.30
10712;BME280;5407;51.234;6.804;2023-02-28T09:31:12;102548.53;;;23.24;35.17
10712;BME280;5407;51.234;6.804;2023-02-28T09:33:40;102539.47;;;23.23;35.13
10712;BME280;5407;51.234;6.804;2023-02-28T09:36:08;102537.50;;;23.24;34.88
10712;BME280;5407;51.234;6.804;2023-02-28T09:38:35;102539.50;;;23.27;35.03
10712;BME280;5407;51.234;6.804;2023-02-28T09:41:08;102540.72;;;23.29;34.79
10712;BME280;5407;51.234;6.804;2023-02-28T09:43:40;102539.13;;;23.32;34.74
10712;BME280;5407;51.234;6.804;2023-02-28T09:46:14;102551.72;;;23.33;34.66
10712;BME280;5407;51.234;6.804;2023-02-28T09:48:45;102542.28;;;23.34;34.79
10712;BME280;5407;51.234;6.804;2023-02-28T09:51:27;102539.16;;;23.35;34.62
10712;BME280;5407;51.234;6.804;2023-02-28T09:53:55;102534.44;;;23.36;34.64
10712;BME280;5407;51.234;6.804;2023-02-28T09:56:25;102540.75;;;23.36;34.65
10712;BME280;5407;51.234;6.804;2023-02-28T09:58:57;102547.03;;;23.37;34.63
10712;BME280;5407;51.234;6.804;2023-02-28T10:01:29;102546.25;;;23.36;34.72
10712;BME280;5407;51.234;6.804;2023-02-28T10:03:59;102546.25;;;23.36;34.75
10712;BME280;5407;51.234;6.804;2023-02-28T10:06:33;102545.47;;;23.36;34.70
10712;BME280;5407;51.234;6.804;2023-02-28T10:09:07;102548.22;;;23.36;34.62
10712;BME280;5407;51.234;6.804;2023-02-28T10:11:39;102550.97;;;23.36;34.68
10712;BME280;5407;51.234;6.804;2023-02-28T10:14:13;102543.88;;;23.35;34.77
10712;BME280;5407;51.234;6.804;2023-02-28T10:16:43;102547.81;;;23.34;34.69
10712;BME280;5407;51.234;6.804;2023-02-28T10:19:16;102545.44;;;23.32;34.74
10712;BME280;5407;51.234;6.804;2023-02-28T10:21:55;102539.94;;;23.32;34.73
10712;BME280;5407;51.234;6.804;2023-02-28T10:24:27;102533.63;;;23.32;34.82
10712;BME280;5407;51.234;6.804;2023-02-28T10:27:00;102532.03;;;23.31;34.80
10712;BME280;5407;51.234;6.804;2023-02-28T10:29:27;102538.34;;;23.31;34.85
10712;BME280;5407;51.234;6.804;2023-02-28T10:31:55;102526.53;;;23.31;35.06
10712;BME280;5407;51.234;6.804;2023-02-28T10:36:51;102524.19;;;23.29;34.89
10712;BME280;5407;51.234;6.804;2023-02-28T10:39:36;102535.97;;;23.30;35.02
10712;BME280;5407;51.234;6.804;2023-02-28T10:42:03;102524.53;;;23.28;35.07
10712;BME280;5407;51.234;6.804;2023-02-28T10:44:31;102532.81;;;23.28;34.96
10712;BME280;5407;51.234;6.804;2023-02-28T10:46:58;102535.56;;;23.28;35.04
10712;BME280;5407;51.234;6.804;2023-02-28T10:49:26;102532.81;;;23.28;35.34
10712;BME280;5407;51.234;6.804;2023-02-28T10:51:57;102531.22;;;23.27;35.32
10712;BME280;5407;51.234;6.804;2023-02-28T10:54:29;102521.78;;;23.28;35.25
10712;BME280;5407;51.234;6.804;2023-02-28T10:57:12;102512.75;;;23.27;35.51
10712;BME280;5407;51.234;6.804;2023-02-28T10:59:41;102504.50;;;23.27;35.17
10712;BME280;5407;51.234;6.804;2023-02-28T11:02:31;102506.84;;;23.29;35.36
10712;BME280;5407;51.234;6.804;2023-02-28T11:04:59;102506.06;;;23.28;35.32
10712;BME280;5407;51.234;6.804;2023-02-28T11:07:27;102510.00;;;23.27;35.53
10712;BME280;5407;51.234;6.804;2023-02-28T11:09:55;102510.38;;;23.26;35.53
10712;BME280;5407;51.234;6.804;2023-02-28T11:12:26;102510.78;;;23.28;35.45
10712;BME280;5407;51.234;6.804;2023-02-28T11:14:57;102504.50;;;23.31;35.30
10712;BME280;5407;51.234;6.804;2023-02-28T11:17:27;102504.53;;;23.34;35.40
10712;BME280;5407;51.234;6.804;2023-02-28T11:19:56;102517.13;;;23.35;35.78
10712;BME280;5407;51.234;6.804;2023-02-28T11:22:28;102502.56;;;23.35;35.72
10712;BME280;5407;51.234;6.804;2023-02-28T11:24:58;102509.66;;;23.36;35.92
10712;BME280;5407;51.234;6.804;2023-02-28T11:27:42;102505.72;;;23.37;35.91
10712;BME280;5407;51.234;6.804;2023-02-28T11:30:27;102501.38;;;23.36;36.83
10712;BME280;5407;51.234;6.804;2023-02-28T11:32:54;102513.16;;;23.33;36.88
10712;BME280;5407;51.234;6.804;2023-02-28T11:35:25;102507.66;;;23.33;36.90
10712;BME280;5407;51.234;6.804;2023-02-28T11:37:54;102497.44;;;23.37;36.55
10712;BME280;5407;51.234;6.804;2023-02-28T11:40:28;102503.38;;;23.39;36.33
10712;BME280;5407;51.234;6.804;2023-02-28T11:43:13;102495.91;;;23.43;36.29
10712;BME280;5407;51.234;6.804;2023-02-28T11:46:03;102490.84;;;23.45;36.35
10712;BME280;5407;51.234;6.804;2023-02-28T11:48:40;102496.75;;;23.47;36.38
10712;BME280;5407;51.234;6.804;2023-02-28T11:51:17;102499.09;;;23.48;36.22
10712;BME280;5407;51.234;6.804;2023-02-28T11:54:15;102502.25;;;23.50;36.47
10712;BME280;5407;51.234;6.804;2023-02-28T11:56:52;102499.13;;;23.52;36.43
10712;BME280;5407;51.234;6.804;2023-02-28T11:59:44;102492.81;;;23.51;36.42
10712;BME280;5407;51.234;6.804;2023-02-28T12:02:24;102491.28;;;23.54;36.51
10712;BME280;5407;51.234;6.804;2023-02-28T12:05:05;102489.28;;;23.54;36.74
10712;BME280;5407;51.234;6.804;2023-02-28T12:07:46;102492.44;;;23.56;36.64
10712;BME280;5407;51.234;6.804;2023-02-28T12:10:21;102484.19;;;23.56;36.84
10712;BME280;5407;51.234;6.804;2023-02-28T12:12:57;102481.06;;;23.58;36.78
10712;BME280;5407;51.234;6.804;2023-02-28T12:15:49;102479.47;;;23.60;37.08
10712;BME280;5407;51.234;6.804;2023-02-28T12:18:30;102477.53;;;23.61;37.04
10712;BME280;5407;51.234;6.804;2023-02-28T12:21:08;102487.38;;;23.62;37.26
10712;BME280;5407;51.234;6.804;2023-02-28T12:23:50;102484.22;;;23.63;37.47
10712;BME280;5407;51.234;6.804;2023-02-28T12:26:28;102485.03;;;23.64;37.51
10712;BME280;5407;51.234;6.804;2023-02-28T12:29:02;102477.13;;;23.62;37.48
10712;BME280;5407;51.234;6.804;2023-02-28T12:31:35;102473.19;;;23.63;37.57
10712;BME280;5407;51.234;6.804;2023-02-28T12:34:06;102473.19;;;23.63;37.60
10712;BME280;5407;51.234;6.804;2023-02-28T12:36:35;102461.41;;;23.63;37.67
10712;BME280;5407;51.234;6.804;2023-02-28T12:39:07;102453.53;;;23.65;37.86
10712;BME280;5407;51.234;6.804;2023-02-28T12:41:41;102448.03;;;23.65;37.77
10712;BME280;5407;51.234;6.804;2023-02-28T12:44:12;102444.09;;;23.66;38.16
10712;BME280;5407;51.234;6.804;2023-02-28T12:46:42;102442.91;;;23.67;38.05
10712;BME280;5407;51.234;6.804;2023-02-28T12:49:15;102441.72;;;23.68;38.05
10712;BME280;5407;51.234;6.804;2023-02-28T12:51:43;102437.78;;;23.69;37.87
10712;BME280;5407;51.234;6.804;2023-02-28T12:54:16;102432.28;;;23.69;38.14
10712;BME280;5407;51.234;6.804;2023-02-28T12:56:53;102424.41;;;23.71;38.02
10712;BME280;5407;51.234;6.804;2023-02-28T12:59:26;102425.22;;;23.71;38.04
10712;BME280;5407;51.234;6.804;2023-02-28T13:04:57;102413.78;;;23.73;37.97
10712;BME280;5407;51.234;6.804;2023-02-28T13:07:53;102408.69;;;23.74;38.04
10712;BME280;5407;51.234;6.804;2023-02-28T13:10:38;102405.56;;;23.76;38.06
10712;BME280;5407;51.234;6.804;2023-02-28T13:13:14;102411.06;;;23.76;38.04
10712;BME280;5407;51.234;6.804;2023-02-28T13:15:57;102400.81;;;23.76;37.81
10712;BME280;5407;51.234;6.804;2023-02-28T13:18:35;102402.38;;;23.77;37.95
10712;BME280;5407;51.234;6.804;2023-02-28T13:21:06;102396.88;;;23.77;37.92
10712;BME280;5407;51.234;6.804;2023-02-28T13:24:01;102397.28;;;23.79;37.85
10712;BME280;5407;51.234;6.804;2023-02-28T13:29:40;102396.50;;;23.79;37.91
10712;BME280;5407;51.234;6.804;2023-02-28T13:32:40;102396.13;;;23.80;37.76
10712;BME280;5407;51.234;6.804;2023-02-28T13:35:37;102390.63;;;23.80;37.42
10712;BME280;5407;51.234;6.804;2023-02-28T13:38:25;102383.50;;;23.79;37.67
10712;BME280;5407;51.234;6.804;2023-02-28T13:44:03;102386.25;;;23.76;36.34
10712;BME280;5407;51.234;6.804;2023-02-28T13:46:34;102385.44;;;23.75;35.93
10712;BME280;5407;51.234;6.804;2023-02-28T13:49:23;102377.59;;;23.77;36.65
10712;BME280;5407;51.234;6.804;2023-02-28T13:51:52;102384.28;;;23.76;35.98